createdAt,value
2017-02-23T00:00:57.871Z,75.57
2017-02-23T00:01:57.892Z,75.67
2017-02-23T00:02:57.875Z,75.43
2017-02-23T00:03:57.915Z,75.28
2017-02-23T00:04:57.512Z,75.19
2017-02-23T00:05:57.945Z,75.19
2017-02-23T00:06:57.542Z,75.28
2017-02-23T00:07:57.983Z,75.19
2017-02-23T00:08:57.974Z,75.09
2017-02-23T00:09:58.011Z,75.28
2017-02-23T00:10:57.621Z,75.19
2017-02-23T00:11:57.724Z,75.38
2017-02-23T00:12:58.037Z,75.05
2017-02-23T00:13:57.652Z,75.67
2017-02-23T00:14:57.662Z,75.85
2017-02-23T00:15:58.096Z,75.81
2017-02-23T00:16:58.095Z,75.76
2017-02-23T00:17:58.120Z,75.67
2017-02-23T00:18:58.115Z,75.67
2017-02-23T00:19:58.158Z,75.95
2017-02-23T00:20:58.142Z,75.67
2017-02-23T00:21:58.176Z,76.33
2017-02-23T00:22:58.175Z,75.57
2017-02-23T00:23:58.221Z,75.76
2017-02-23T00:24:57.811Z,75.85
2017-02-23T00:25:58.248Z,76.04
2017-02-23T00:26:58.236Z,76.04
2017-02-23T00:27:58.253Z,75.95
2017-02-23T00:28:58.272Z,76.04
2017-02-23T00:29:58.287Z,76.04
2017-02-23T00:30:58.291Z,76.04
2017-02-23T00:31:58.331Z,75.85
2017-02-23T00:32:58.321Z,76.14
2017-02-23T00:33:58.341Z,75.95
2017-02-23T00:34:58.362Z,75.85
2017-02-23T00:35:58.374Z,75.95
2017-02-23T00:36:58.480Z,76.52
2017-02-23T00:37:58.405Z,76.61
2017-02-23T00:38:58.417Z,75.95
2017-02-23T00:39:58.448Z,76.42
2017-02-23T00:40:58.443Z,75.95
2017-02-23T00:41:58.481Z,75.85
2017-02-23T00:42:58.506Z,75.95
2017-02-23T00:43:58.518Z,76.04
2017-02-23T00:44:58.504Z,76.04
2017-02-23T00:45:58.532Z,76.33
2017-02-23T00:46:58.530Z,75.95
2017-02-23T00:47:58.575Z,76.04
2017-02-23T00:48:58.560Z,75.67
2017-02-23T00:49:58.600Z,76.04
2017-02-23T00:50:58.590Z,76.33
2017-02-23T00:51:58.619Z,76.14
2017-02-23T00:52:58.624Z,76.33
2017-02-23T00:53:58.654Z,76.14
2017-02-23T00:54:58.753Z,76.14
2017-02-23T00:55:58.680Z,76.14
2017-02-23T00:56:58.765Z,75.76
2017-02-23T00:57:58.773Z,76.14
2017-02-23T00:58:58.783Z,76.14
2017-02-23T00:59:58.791Z,76.04
2017-02-23T01:00:58.799Z,76.14
2017-02-23T01:01:58.808Z,76.14
2017-02-23T01:02:58.774Z,76.33
2017-02-23T01:03:58.805Z,76.14
2017-02-23T01:04:58.795Z,75.85
2017-02-23T01:05:58.838Z,76.14
2017-02-23T01:06:58.832Z,76.14
2017-02-23T01:07:58.869Z,76.23
2017-02-23T01:08:58.855Z,76.14
2017-02-23T01:09:58.888Z,76.14
2017-02-23T01:10:58.886Z,76.33
2017-02-23T01:11:58.912Z,76.33
2017-02-23T01:12:59.147Z,76.04
2017-02-23T01:13:59.156Z,76.04
2017-02-23T01:14:59.149Z,75.95
2017-02-23T01:15:59.160Z,76.23
2017-02-23T01:16:59.167Z,76.14
2017-02-23T01:17:59.166Z,76.04
2017-02-23T01:18:59.174Z,76.04
2017-02-23T01:19:59.218Z,76.04
2017-02-23T01:20:59.226Z,76.04
2017-02-23T01:21:59.231Z,76.04
2017-02-23T01:22:59.240Z,76.04
2017-02-23T01:23:59.248Z,76.42
2017-02-23T01:24:59.256Z,76.42
2017-02-23T01:25:59.266Z,76.14
2017-02-23T01:26:59.239Z,75.76
2017-02-23T01:27:59.275Z,75.95
2017-02-23T01:28:59.243Z,75.85
2017-02-23T01:29:59.292Z,75.85
2017-02-23T01:30:59.301Z,76.52
2017-02-23T01:31:59.285Z,76.42
2017-02-23T01:32:59.303Z,76.14
2017-02-23T01:33:59.308Z,75.85
2017-02-23T01:34:59.302Z,75.95
2017-02-23T01:35:59.318Z,75.57
2017-02-23T01:36:59.315Z,75.95
2017-02-23T01:37:59.353Z,75.95
2017-02-23T01:38:59.336Z,76.04
2017-02-23T01:39:59.338Z,75.47
2017-02-23T01:40:59.346Z,75.85
2017-02-23T01:41:59.353Z,75.85
2017-02-23T01:42:59.366Z,75.67
2017-02-23T01:43:59.377Z,75.57
2017-02-23T01:44:59.407Z,75.67
2017-02-23T01:45:59.409Z,75.38
2017-02-23T01:46:59.425Z,76.14
2017-02-23T01:47:59.436Z,75.38
2017-02-23T01:48:59.461Z,75.85
2017-02-23T01:49:59.511Z,75.19
2017-02-23T01:50:59.482Z,75.85
2017-02-23T01:51:59.588Z,75.95
2017-02-23T01:52:59.704Z,75.85
2017-02-23T01:53:59.529Z,75.38
2017-02-23T01:54:59.147Z,75.85
2017-02-23T01:55:59.613Z,75.85
2017-02-23T01:56:59.621Z,75.67
2017-02-23T01:57:59.785Z,75.67
2017-02-23T01:58:59.630Z,74.99
2017-02-23T01:59:59.639Z,75.19
2017-02-23T02:00:59.631Z,75.28
2017-02-23T02:01:59.644Z,75.28
2017-02-23T02:02:59.666Z,75.19
2017-02-23T02:03:59.699Z,75.19
2017-02-23T02:04:59.696Z,75.28
2017-02-23T02:05:59.708Z,75.28
2017-02-23T02:06:59.718Z,75.38
2017-02-23T02:07:59.734Z,75.28
2017-02-23T02:08:59.748Z,75.09
2017-02-23T02:09:59.782Z,75.38
2017-02-23T02:10:59.834Z,75.19
2017-02-23T02:11:59.808Z,75.19
2017-02-23T02:12:59.809Z,75.09
2017-02-23T02:13:59.934Z,75.28
2017-02-23T02:14:59.852Z,75.47
2017-02-23T02:15:59.853Z,75.38
2017-02-23T02:16:59.978Z,75.38
2017-02-23T02:17:59.924Z,75.09
2017-02-23T02:19:00.131Z,75.38
2017-02-23T02:20:00.090Z,75.67
2017-02-23T02:20:59.933Z,75.47
2017-02-23T02:21:59.969Z,75.67
2017-02-23T02:22:59.962Z,75.38
2017-02-23T02:23:59.994Z,75.38
2017-02-23T02:24:59.989Z,75.76
2017-02-23T02:26:00.030Z,75.38
2017-02-23T02:27:00.029Z,75.85
2017-02-23T02:28:00.049Z,75.38
2017-02-23T02:29:00.051Z,75.67
2017-02-23T02:30:00.109Z,75.76
2017-02-23T02:31:00.084Z,75.67
2017-02-23T02:32:00.097Z,75.85
2017-02-23T02:33:00.116Z,75.67
2017-02-23T02:34:00.132Z,75.85
2017-02-23T02:35:00.141Z,75.85
2017-02-23T02:36:00.158Z,75.85
2017-02-23T02:37:00.170Z,75.95
2017-02-23T02:38:00.185Z,75.85
2017-02-23T02:39:00.222Z,75.85
2017-02-23T02:40:00.264Z,75.85
2017-02-23T02:41:00.228Z,75.47
2017-02-23T02:42:00.270Z,75.47
2017-02-23T02:43:00.253Z,75.28
2017-02-23T02:44:00.300Z,75.19
2017-02-23T02:45:00.323Z,75.47
2017-02-23T02:46:00.324Z,75.67
2017-02-23T02:47:00.321Z,75.47
2017-02-23T02:48:00.352Z,75.85
2017-02-23T02:49:00.349Z,75.47
2017-02-23T02:50:00.395Z,75.67
2017-02-23T02:51:00.376Z,75.85
2017-02-23T02:52:00.390Z,75.38
2017-02-23T02:53:00.456Z,75.85
2017-02-23T02:54:00.445Z,75.85
2017-02-23T02:55:00.434Z,75.85
2017-02-23T02:56:00.473Z,75.67
2017-02-23T02:57:00.483Z,75.85
2017-02-23T02:58:00.505Z,75.85
2017-02-23T02:59:00.497Z,75.85
2017-02-23T03:00:00.552Z,75.67
2017-02-23T03:01:00.544Z,75.57
2017-02-23T03:02:00.548Z,75.67
2017-02-23T03:03:00.558Z,75.85
2017-02-23T03:04:00.585Z,75.76
2017-02-23T03:05:00.585Z,75.47
2017-02-23T03:06:00.600Z,75.67
2017-02-23T03:07:00.621Z,75.67
2017-02-23T03:08:00.642Z,75.57
2017-02-23T03:09:00.663Z,76.04
2017-02-23T03:10:00.700Z,75.67
2017-02-23T03:11:00.692Z,75.57
2017-02-23T03:12:00.696Z,75.95
2017-02-23T03:13:00.708Z,75.76
2017-02-23T03:14:00.731Z,75.76
2017-02-23T03:15:00.738Z,75.38
2017-02-23T03:16:00.752Z,76.33
2017-02-23T03:17:00.777Z,75.85
2017-02-23T03:18:00.807Z,75.85
2017-02-23T03:19:00.795Z,75.85
2017-02-23T03:20:00.831Z,75.95
2017-02-23T03:21:00.824Z,75.67
2017-02-23T03:22:00.876Z,76.04
2017-02-23T03:23:00.860Z,75.85
2017-02-23T03:24:00.890Z,75.95
2017-02-23T03:25:00.896Z,75.85
2017-02-23T03:26:00.928Z,75.47
2017-02-23T03:27:00.922Z,75.95
2017-02-23T03:28:01.036Z,76.14
2017-02-23T03:29:00.956Z,76.33
2017-02-23T03:30:00.964Z,76.42
2017-02-23T03:31:00.975Z,76.42
2017-02-23T03:32:00.996Z,76.33
2017-02-23T03:33:01.016Z,76.42
2017-02-23T03:34:01.025Z,76.14
2017-02-23T03:35:01.041Z,76.42
2017-02-23T03:36:01.051Z,76.33
2017-02-23T03:37:01.068Z,76.33
2017-02-23T03:38:01.084Z,76.33
2017-02-23T03:39:01.096Z,76.14
2017-02-23T03:40:01.111Z,76.14
2017-02-23T03:41:01.123Z,76.23
2017-02-23T03:42:01.161Z,76.04
2017-02-23T03:43:01.179Z,76.33
2017-02-23T03:44:01.168Z,76.04
2017-02-23T03:45:01.189Z,76.04
2017-02-23T03:46:01.198Z,76.42
2017-02-23T03:47:01.221Z,76.04
2017-02-23T03:48:01.245Z,76.33
2017-02-23T03:49:01.243Z,76.42
2017-02-23T03:50:01.259Z,75.67
2017-02-23T03:51:01.277Z,76.14
2017-02-23T03:52:01.288Z,76.14
2017-02-23T03:53:01.319Z,76.23
2017-02-23T03:54:01.335Z,76.33
2017-02-23T03:55:01.345Z,75.95
2017-02-23T03:56:01.363Z,76.04
2017-02-23T03:57:01.371Z,75.85
2017-02-23T03:58:01.384Z,75.95
2017-02-23T03:59:01.396Z,75.76
2017-02-23T04:00:01.417Z,76.04
2017-02-23T04:01:01.426Z,75.95
2017-02-23T04:02:01.447Z,75.85
2017-02-23T04:03:01.478Z,75.95
2017-02-23T04:04:01.468Z,76.14
2017-02-23T04:05:01.483Z,76.14
2017-02-23T04:06:01.495Z,75.76
2017-02-23T04:07:01.512Z,76.61
2017-02-23T04:08:01.540Z,75.95
2017-02-23T04:09:01.550Z,76.23
2017-02-23T04:10:01.556Z,76.33
2017-02-23T04:11:01.576Z,76.42
2017-02-23T04:12:01.584Z,76.61
2017-02-23T04:13:01.652Z,76.71
2017-02-23T04:14:01.728Z,76.52
2017-02-23T04:15:01.634Z,76.71
2017-02-23T04:16:01.671Z,76.71
2017-02-23T04:17:01.661Z,76.23
2017-02-23T04:18:01.686Z,76.52
2017-02-23T04:19:01.803Z,76.61
2017-02-23T04:20:01.706Z,76.23
2017-02-23T04:21:01.729Z,76.61
2017-02-23T04:22:01.741Z,76.61
2017-02-23T04:23:01.755Z,76.71
2017-02-23T04:24:01.783Z,76.42
2017-02-23T04:25:01.785Z,76.71
2017-02-23T04:26:01.816Z,76.9
2017-02-23T04:27:01.814Z,76.81
2017-02-23T04:28:01.841Z,76.42
2017-02-23T04:29:01.841Z,76.33
2017-02-23T04:30:01.866Z,76.52
2017-02-23T04:31:01.878Z,76.9
2017-02-23T04:32:01.893Z,76.42
2017-02-23T04:33:01.903Z,76.61
2017-02-23T04:34:01.925Z,76.42
2017-02-23T04:35:01.937Z,76.81
2017-02-23T04:36:01.954Z,76.42
2017-02-23T04:37:02.048Z,76.23
2017-02-23T04:38:01.983Z,75.95
2017-02-23T04:39:01.993Z,75.95
2017-02-23T04:40:02.017Z,76.04
2017-02-23T04:41:02.052Z,76.42
2017-02-23T04:42:02.038Z,76.52
2017-02-23T04:43:02.057Z,76.61
2017-02-23T04:44:02.066Z,76.61
2017-02-23T04:45:02.095Z,76.42
2017-02-23T04:46:02.107Z,76.04
2017-02-23T04:47:02.113Z,76.61
2017-02-23T04:48:02.239Z,76.33
2017-02-23T04:49:02.155Z,75.95
2017-02-23T04:50:02.164Z,76.52
2017-02-23T04:51:02.280Z,76.04
2017-02-23T04:52:02.196Z,76.23
2017-02-23T04:53:02.200Z,76.23
2017-02-23T04:54:02.218Z,76.52
2017-02-23T04:55:02.364Z,76.71
2017-02-23T04:56:02.315Z,76.61
2017-02-23T04:57:02.325Z,76.23
2017-02-23T04:58:02.323Z,76.04
2017-02-23T04:59:02.331Z,76.23
2017-02-23T05:00:02.341Z,75.95
2017-02-23T05:01:02.348Z,76.14
2017-02-23T05:02:02.360Z,76.23
2017-02-23T05:03:02.356Z,76.71
2017-02-23T05:04:02.369Z,76.52
2017-02-23T05:05:02.434Z,76.04
2017-02-23T05:06:02.442Z,76.23
2017-02-23T05:07:02.442Z,76.04
2017-02-23T05:08:02.450Z,76.23
2017-02-23T05:09:02.463Z,75.85
2017-02-23T05:10:02.468Z,76.33
2017-02-23T05:11:02.475Z,76.61
2017-02-23T05:12:02.489Z,76.04
2017-02-23T05:13:02.497Z,76.52
2017-02-23T05:14:02.636Z,76.23
2017-02-23T05:15:02.640Z,76.71
2017-02-23T05:16:02.657Z,76.71
2017-02-23T05:17:02.647Z,76.52
2017-02-23T05:18:02.404Z,76.52
2017-02-23T05:19:02.799Z,76.42
2017-02-23T05:20:02.805Z,76.52
2017-02-23T05:21:02.822Z,76.04
2017-02-23T05:22:02.821Z,77
2017-02-23T05:23:02.828Z,76.81
2017-02-23T05:24:02.820Z,76.9
2017-02-23T05:25:02.830Z,76.42
2017-02-23T05:26:02.838Z,76.52
2017-02-23T05:27:02.835Z,76.71
2017-02-23T05:28:02.844Z,76.81
2017-02-23T05:29:02.854Z,76.81
2017-02-23T05:30:02.862Z,76.42
2017-02-23T05:31:02.859Z,77
2017-02-23T05:32:02.872Z,77.09
2017-02-23T05:33:02.943Z,76.52
2017-02-23T05:34:02.558Z,76.42
2017-02-23T05:35:02.926Z,77
2017-02-23T05:36:02.934Z,75.95
2017-02-23T05:37:02.943Z,76.61
2017-02-23T05:38:02.953Z,77.19
2017-02-23T05:39:02.960Z,77.09
2017-02-23T05:40:03.006Z,77.09
2017-02-23T05:41:03.008Z,77.19
2017-02-23T05:42:02.989Z,76.9
2017-02-23T05:43:02.989Z,76.81
2017-02-23T05:44:02.980Z,76.71
2017-02-23T05:45:02.984Z,76.81
2017-02-23T05:46:02.999Z,76.81
2017-02-23T05:47:03.009Z,76.71
2017-02-23T05:48:03.028Z,76.71
2017-02-23T05:49:03.036Z,76.9
2017-02-23T05:50:03.063Z,77.28
2017-02-23T05:51:03.070Z,77.28
2017-02-23T05:52:03.102Z,77.28
2017-02-23T05:53:03.100Z,77.37
2017-02-23T05:54:03.112Z,77.37
2017-02-23T05:55:03.128Z,77.09
2017-02-23T05:56:03.160Z,77.37
2017-02-23T05:57:03.156Z,77.47
2017-02-23T05:58:03.179Z,77.28
2017-02-23T05:59:03.216Z,76.42
2017-02-23T06:00:03.203Z,77.19
2017-02-23T06:01:03.225Z,77.37
2017-02-23T06:02:02.850Z,77.37
2017-02-23T06:03:03.251Z,77.47
2017-02-23T06:04:02.877Z,76.9
2017-02-23T06:05:03.280Z,76.9
2017-02-23T06:06:03.309Z,77
2017-02-23T06:07:03.320Z,77.09
2017-02-23T06:08:03.324Z,77
2017-02-23T06:09:03.340Z,77.09
2017-02-23T06:10:03.354Z,77.09
2017-02-23T06:11:03.368Z,76.71
2017-02-23T06:12:03.391Z,76.9
2017-02-23T06:13:03.396Z,77.28
2017-02-23T06:14:03.028Z,77.28
2017-02-23T06:15:03.431Z,77.19
2017-02-23T06:16:03.442Z,77.19
2017-02-23T06:17:03.457Z,77.19
2017-02-23T06:18:03.484Z,76.9
2017-02-23T06:19:03.498Z,76.9
2017-02-23T06:20:03.130Z,76.9
2017-02-23T06:21:03.520Z,77.19
2017-02-23T06:22:03.145Z,77
2017-02-23T06:23:03.553Z,77
2017-02-23T06:24:03.570Z,77.66
2017-02-23T06:25:03.577Z,77.76
2017-02-23T06:26:03.604Z,77.09
2017-02-23T06:27:03.604Z,77.56
2017-02-23T06:28:03.632Z,77.19
2017-02-23T06:29:03.637Z,77.28
2017-02-23T06:30:03.676Z,77.19
2017-02-23T06:31:03.666Z,77.28
2017-02-23T06:32:03.300Z,77.19
2017-02-23T06:33:03.750Z,77.19
2017-02-23T06:34:03.725Z,77.28
2017-02-23T06:35:03.725Z,77.47
2017-02-23T06:36:03.753Z,77.76
2017-02-23T06:37:03.763Z,77.37
2017-02-23T06:38:03.770Z,77.19
2017-02-23T06:39:03.784Z,77.19
2017-02-23T06:40:03.804Z,77.85
2017-02-23T06:41:03.818Z,77.37
2017-02-23T06:42:03.834Z,77.09
2017-02-23T06:43:04.056Z,77.95
2017-02-23T06:44:03.870Z,77.37
2017-02-23T06:45:04.079Z,77.28
2017-02-23T06:46:03.890Z,77.09
2017-02-23T06:47:03.906Z,77.19
2017-02-23T06:48:03.923Z,77.47
2017-02-23T06:49:04.043Z,77.95
2017-02-23T06:50:03.959Z,77.56
2017-02-23T06:51:03.966Z,77.28
2017-02-23T06:52:03.979Z,77.76
2017-02-23T06:53:03.999Z,77.47
2017-02-23T06:54:04.015Z,77.47
2017-02-23T06:55:03.637Z,77.09
2017-02-23T06:56:04.046Z,78.14
2017-02-23T06:57:04.058Z,77.95
2017-02-23T06:58:04.121Z,77.85
2017-02-23T06:59:04.087Z,77.47
2017-02-23T07:00:04.100Z,77.66
2017-02-23T07:01:04.117Z,77.19
2017-02-23T07:02:04.235Z,77.09
2017-02-23T07:03:04.146Z,77.09
2017-02-23T07:04:04.166Z,77.76
2017-02-23T07:05:04.188Z,77.66
2017-02-23T07:06:04.193Z,77.95
2017-02-23T07:07:04.208Z,77
2017-02-23T07:08:04.220Z,77.19
2017-02-23T07:09:04.339Z,77.76
2017-02-23T07:10:04.266Z,77.95
2017-02-23T07:11:04.266Z,77.66
2017-02-23T07:12:04.284Z,77.09
2017-02-23T07:13:04.352Z,77.09
2017-02-23T07:14:04.332Z,77.66
2017-02-23T07:15:04.327Z,77.95
2017-02-23T07:16:04.348Z,77.95
2017-02-23T07:17:04.357Z,77.28
2017-02-23T07:18:04.372Z,77.95
2017-02-23T07:19:04.386Z,77.56
2017-02-23T07:20:04.469Z,77.76
2017-02-23T07:21:04.415Z,77.47
2017-02-23T07:22:04.434Z,77.47
2017-02-23T07:23:04.446Z,77.76
2017-02-23T07:24:04.492Z,77.76
2017-02-23T07:25:04.476Z,77.66
2017-02-23T07:26:04.599Z,77.66
2017-02-23T07:27:04.504Z,77.76
2017-02-23T07:28:04.527Z,77.47
2017-02-23T07:29:04.538Z,77.19
2017-02-23T07:30:04.550Z,77.19
2017-02-23T07:31:04.563Z,77.56
2017-02-23T07:32:04.582Z,77.37
2017-02-23T07:33:04.214Z,77.37
2017-02-23T07:34:04.613Z,77.95
2017-02-23T07:35:04.644Z,77.28
2017-02-23T07:36:04.642Z,77.19
2017-02-23T07:37:04.660Z,77.66
2017-02-23T07:38:04.668Z,77.19
2017-02-23T07:39:04.689Z,77.95
2017-02-23T07:40:04.703Z,77.85
2017-02-23T07:41:04.720Z,77.28
2017-02-23T07:42:04.734Z,77.28
2017-02-23T07:43:04.748Z,77.47
2017-02-23T07:44:04.765Z,77.66
2017-02-23T07:45:04.778Z,77.56
2017-02-23T07:46:04.795Z,77.28
2017-02-23T07:47:04.814Z,77.37
2017-02-23T07:48:04.831Z,77.37
2017-02-23T07:49:04.839Z,77.28
2017-02-23T07:50:04.856Z,77.32
2017-02-23T07:51:04.869Z,77.37
2017-02-23T07:52:04.900Z,77.32
2017-02-23T07:53:04.917Z,77.37
2017-02-23T07:54:04.922Z,77.37
2017-02-23T07:55:04.931Z,77.66
2017-02-23T07:56:04.957Z,77.37
2017-02-23T07:57:04.999Z,77.37
2017-02-23T07:58:04.990Z,77.42
2017-02-23T07:59:05.002Z,77.51
2017-02-23T08:00:05.007Z,77.56
2017-02-23T08:01:04.735Z,77.19
2017-02-23T08:02:05.036Z,77.32
2017-02-23T08:03:05.053Z,76.84
2017-02-23T08:04:04.674Z,77.13
2017-02-23T08:05:05.084Z,77.09
2017-02-23T08:06:05.321Z,77.19
2017-02-23T08:07:05.154Z,77.42
2017-02-23T08:08:05.131Z,77.32
2017-02-23T08:09:05.150Z,76.75
2017-02-23T08:10:05.166Z,77.32
2017-02-23T08:11:05.173Z,76.65
2017-02-23T08:12:05.187Z,76.56
2017-02-23T08:13:04.806Z,76.75
2017-02-23T08:14:05.218Z,76.65
2017-02-23T08:15:05.025Z,76.84
2017-02-23T08:16:05.249Z,77.03
2017-02-23T08:17:05.272Z,76.94
2017-02-23T08:18:05.291Z,76.84
2017-02-23T08:19:05.409Z,76.94
2017-02-23T08:20:05.416Z,77.13
2017-02-23T08:21:05.326Z,77.13
2017-02-23T08:22:04.952Z,77.13
2017-02-23T08:23:05.365Z,77.13
2017-02-23T08:24:05.365Z,76.46
2017-02-23T08:25:05.015Z,76.56
2017-02-23T08:26:05.417Z,76.75
2017-02-23T08:27:05.432Z,76.94
2017-02-23T08:28:05.445Z,76.75
2017-02-23T08:29:05.461Z,76.75
2017-02-23T08:30:05.462Z,76.46
2017-02-23T08:31:05.486Z,76.46
2017-02-23T08:32:05.493Z,76.84
2017-02-23T08:33:05.508Z,76.75
2017-02-23T08:34:05.519Z,76.75
2017-02-23T08:35:05.145Z,76.46
2017-02-23T08:36:05.595Z,76.27
2017-02-23T08:37:05.654Z,76.18
2017-02-23T08:38:05.582Z,76.08
2017-02-23T08:39:05.611Z,75.89
2017-02-23T08:40:05.634Z,75.99
2017-02-23T08:41:05.235Z,75.99
2017-02-23T08:42:05.648Z,76.08
2017-02-23T08:43:05.662Z,76.08
2017-02-23T08:44:05.678Z,76.08
2017-02-23T08:45:05.298Z,76.27
2017-02-23T08:46:05.742Z,76.37
2017-02-23T08:47:05.739Z,76.08
2017-02-23T08:48:05.742Z,76.37
2017-02-23T08:49:05.768Z,76.27
2017-02-23T08:50:05.377Z,76.37
2017-02-23T08:51:05.803Z,75.99
2017-02-23T08:52:05.800Z,76.18
2017-02-23T08:53:05.924Z,75.99
2017-02-23T08:54:05.831Z,76.18
2017-02-23T08:55:05.457Z,76.18
2017-02-23T08:56:05.860Z,75.79
2017-02-23T08:57:05.488Z,76.18
2017-02-23T08:58:06.004Z,76.18
2017-02-23T08:59:05.909Z,76.27
2017-02-23T09:00:05.934Z,76.08
2017-02-23T09:01:05.944Z,76.27
2017-02-23T09:02:05.956Z,76.08
2017-02-23T09:03:05.973Z,75.99
2017-02-23T09:04:05.989Z,75.99
2017-02-23T09:05:06.003Z,75.89
2017-02-23T09:06:06.019Z,76.18
2017-02-23T09:07:05.634Z,76.08
2017-02-23T09:08:06.052Z,76.12
2017-02-23T09:09:06.212Z,76.18
2017-02-23T09:10:06.087Z,76.4
2017-02-23T09:11:06.091Z,76.03
2017-02-23T09:12:05.712Z,76.69
2017-02-23T09:13:06.130Z,76.5
2017-02-23T09:14:06.150Z,76.21
2017-02-23T09:15:06.158Z,76.21
2017-02-23T09:16:06.176Z,76.31
2017-02-23T09:17:06.192Z,76.5
2017-02-23T09:18:05.817Z,76.88
2017-02-23T09:19:05.825Z,76.4
2017-02-23T09:20:05.844Z,76.79
2017-02-23T09:21:06.276Z,76.88
2017-02-23T09:22:05.985Z,76.69
2017-02-23T09:23:06.295Z,77.17
2017-02-23T09:24:06.294Z,76.69
2017-02-23T09:25:06.314Z,76.88
2017-02-23T09:26:20.817Z,76.98
2017-02-23T09:27:06.346Z,76.98
2017-02-23T09:28:06.359Z,77.17
2017-02-23T09:29:06.368Z,77.17
2017-02-23T09:30:06.004Z,77.26
2017-02-23T09:31:06.410Z,77.26
2017-02-23T09:32:06.514Z,77.07
2017-02-23T09:33:06.438Z,77.07
2017-02-23T09:34:06.456Z,77.07
2017-02-23T09:35:06.483Z,77.26
2017-02-23T09:36:06.486Z,76.98
2017-02-23T09:37:06.498Z,76.98
2017-02-23T09:38:06.119Z,77.36
2017-02-23T09:39:06.531Z,77.36
2017-02-23T09:40:06.549Z,77.36
2017-02-23T09:41:06.172Z,77.36
2017-02-23T09:42:06.209Z,77.55
2017-02-23T09:43:06.495Z,77.64
2017-02-23T09:44:06.621Z,77.83
2017-02-23T09:45:06.630Z,78.12
2017-02-23T09:46:06.642Z,77.93
2017-02-23T09:47:06.655Z,77.93
2017-02-23T09:48:06.684Z,77.26
2017-02-23T09:49:06.684Z,77.17
2017-02-23T09:50:06.712Z,77.55
2017-02-23T09:51:06.717Z,77.55
2017-02-23T09:52:06.734Z,77.45
2017-02-23T09:53:06.751Z,77.45
2017-02-23T09:54:06.780Z,77.26
2017-02-23T09:55:06.783Z,77.55
2017-02-23T09:56:07.034Z,78.03
2017-02-23T09:57:06.813Z,77.74
2017-02-23T09:58:06.832Z,78.03
2017-02-23T09:59:06.847Z,78.69
2017-02-23T10:00:06.969Z,78.03
2017-02-23T10:01:06.891Z,78.03
2017-02-23T10:02:06.897Z,77.74
2017-02-23T10:03:06.909Z,77.93
2017-02-23T10:04:06.925Z,78.22
2017-02-23T10:05:06.947Z,77.83
2017-02-23T10:06:07.073Z,77.93
2017-02-23T10:07:07.061Z,78.22
2017-02-23T10:08:06.987Z,78.22
2017-02-23T10:09:07.003Z,77.83
2017-02-23T10:10:07.025Z,78.03
2017-02-23T10:11:07.186Z,78.41
2017-02-23T10:12:07.052Z,78.22
2017-02-23T10:13:07.066Z,78.22
2017-02-23T10:14:07.085Z,78.41
2017-02-23T10:15:07.099Z,78.22
2017-02-23T10:16:07.126Z,78.22
2017-02-23T10:17:07.146Z,78.03
2017-02-23T10:18:07.147Z,77.74
2017-02-23T10:19:07.165Z,77.74
2017-02-23T10:20:07.179Z,78.12
2017-02-23T10:21:07.205Z,77.64
2017-02-23T10:22:07.209Z,77.97
2017-02-23T10:23:07.243Z,77.83
2017-02-23T10:24:07.243Z,78.25
2017-02-23T10:25:07.262Z,78.12
2017-02-23T10:26:07.274Z,77.83
2017-02-23T10:27:07.294Z,77.93
2017-02-23T10:28:07.321Z,77.64
2017-02-23T10:29:07.334Z,77.93
2017-02-23T10:30:07.341Z,78.41
2017-02-23T10:31:07.356Z,78.41
2017-02-23T10:32:07.367Z,78.31
2017-02-23T10:33:07.383Z,78.22
2017-02-23T10:34:07.020Z,78.12
2017-02-23T10:35:07.431Z,78.22
2017-02-23T10:36:07.438Z,78.31
2017-02-23T10:37:07.454Z,78.31
2017-02-23T10:38:07.463Z,78.25
2017-02-23T10:39:07.489Z,78.69
2017-02-23T10:40:07.498Z,78.54
2017-02-23T10:41:07.512Z,78.54
2017-02-23T10:42:07.638Z,78.31
2017-02-23T10:43:07.741Z,78.54
2017-02-23T10:44:07.660Z,78.54
2017-02-23T10:45:07.686Z,78.22
2017-02-23T10:46:07.297Z,78.16
2017-02-23T10:47:07.665Z,77.97
2017-02-23T10:48:07.672Z,78.54
2017-02-23T10:49:07.679Z,78.25
2017-02-23T10:50:07.658Z,78.25
2017-02-23T10:51:07.294Z,78.25
2017-02-23T10:52:07.694Z,78.25
2017-02-23T10:53:07.713Z,78.35
2017-02-23T10:54:07.725Z,78.22
2017-02-23T10:55:07.835Z,78.44
2017-02-23T10:56:07.373Z,78.25
2017-02-23T10:57:07.787Z,78.16
2017-02-23T10:58:07.792Z,78.5
2017-02-23T10:59:07.809Z,78.12
2017-02-23T11:00:07.426Z,78.41
2017-02-23T11:01:07.839Z,78.31
2017-02-23T11:02:07.968Z,78.12
2017-02-23T11:03:07.875Z,78.22
2017-02-23T11:04:07.888Z,78.41
2017-02-23T11:05:07.906Z,78.35
2017-02-23T11:06:07.936Z,78.31
2017-02-23T11:07:08.012Z,78.41
2017-02-23T11:08:08.045Z,78.22
2017-02-23T11:09:07.979Z,78.03
2017-02-23T11:10:08.062Z,78.44
2017-02-23T11:11:08.061Z,78.22
2017-02-23T11:12:08.070Z,77.97
2017-02-23T11:13:08.085Z,78.06
2017-02-23T11:14:08.087Z,78.12
2017-02-23T11:15:07.671Z,78.12
2017-02-23T11:16:07.698Z,78.25
2017-02-23T11:17:08.096Z,77.93
2017-02-23T11:18:08.125Z,78.03
2017-02-23T11:19:08.143Z,77.97
2017-02-23T11:20:08.147Z,77.93
2017-02-23T11:21:08.179Z,78.06
2017-02-23T11:22:08.178Z,77.97
2017-02-23T11:23:08.197Z,77.87
2017-02-23T11:24:08.215Z,78.12
2017-02-23T11:25:08.230Z,78.12
2017-02-23T11:26:08.247Z,77.97
2017-02-23T11:27:08.260Z,78.35
2017-02-23T11:28:08.275Z,77.55
2017-02-23T11:29:08.295Z,78.25
2017-02-23T11:30:08.312Z,78.22
2017-02-23T11:31:08.328Z,78.12
2017-02-23T11:32:08.340Z,78.22
2017-02-23T11:33:08.355Z,78.25
2017-02-23T11:34:07.977Z,78.25
2017-02-23T11:35:08.390Z,78.22
2017-02-23T11:36:08.008Z,78.12
2017-02-23T11:37:08.425Z,77.74
2017-02-23T11:38:08.436Z,77.45
2017-02-23T11:39:08.458Z,77.74
2017-02-23T11:40:08.074Z,78.03
2017-02-23T11:41:08.508Z,77.45
2017-02-23T11:42:08.502Z,77.97
2017-02-23T11:43:08.521Z,77.11
2017-02-23T11:44:08.534Z,77.55
2017-02-23T11:45:08.170Z,77.55
2017-02-23T11:46:08.580Z,77.93
2017-02-23T11:47:08.584Z,77.26
2017-02-23T11:48:08.601Z,77.17
2017-02-23T11:49:08.614Z,77.26
2017-02-23T11:50:08.631Z,77.64
2017-02-23T11:51:08.649Z,77.55
2017-02-23T11:52:08.279Z,77.74
2017-02-23T11:53:08.282Z,77.64
2017-02-23T11:54:08.299Z,77.55
2017-02-23T11:55:08.713Z,77.45
2017-02-23T11:56:08.728Z,77.26
2017-02-23T11:57:08.740Z,77.78
2017-02-23T11:58:08.764Z,77.74
2017-02-23T11:59:08.777Z,77.11
2017-02-23T12:00:08.791Z,77.3
2017-02-23T12:01:08.815Z,77.3
2017-02-23T12:02:08.826Z,77.11
2017-02-23T12:03:08.855Z,77.11
2017-02-23T12:04:08.855Z,76.92
2017-02-23T12:05:08.878Z,77.01
2017-02-23T12:06:08.907Z,77.4
2017-02-23T12:07:08.932Z,77.3
2017-02-23T12:08:08.930Z,77.11
2017-02-23T12:09:08.941Z,77.2
2017-02-23T12:10:09.173Z,77.49
2017-02-23T12:11:08.972Z,77.49
2017-02-23T12:12:08.988Z,77.3
2017-02-23T12:13:09.002Z,76.64
2017-02-23T12:14:09.016Z,76.92
2017-02-23T12:15:09.072Z,76.92
2017-02-23T12:16:09.058Z,77.2
2017-02-23T12:17:09.065Z,77.11
2017-02-23T12:18:09.085Z,76.92
2017-02-23T12:19:09.106Z,76.73
2017-02-23T12:20:09.118Z,77.01
2017-02-23T12:21:09.154Z,77.01
2017-02-23T12:22:09.151Z,76.82
2017-02-23T12:23:09.177Z,76.35
2017-02-23T12:24:09.180Z,76.73
2017-02-23T12:25:09.203Z,76.54
2017-02-23T12:26:08.822Z,76.54
2017-02-23T12:27:09.246Z,76.25
2017-02-23T12:28:09.248Z,76.25
2017-02-23T12:29:09.281Z,76.25
2017-02-23T12:30:08.898Z,75.87
2017-02-23T12:31:09.301Z,76.35
2017-02-23T12:32:09.319Z,76.25
2017-02-23T12:33:09.331Z,76.25
2017-02-23T12:34:09.349Z,76.25
2017-02-23T12:35:09.361Z,76.44
2017-02-23T12:36:09.385Z,75.78
2017-02-23T12:37:09.395Z,76.06
2017-02-23T12:38:09.417Z,75.87
2017-02-23T12:39:09.426Z,75.68
2017-02-23T12:40:09.464Z,75.78
2017-02-23T12:41:09.464Z,75.87
2017-02-23T12:42:09.085Z,76.06
2017-02-23T12:43:09.492Z,75.68
2017-02-23T12:44:09.543Z,75.4
2017-02-23T12:45:09.542Z,75.96
2017-02-23T12:46:09.147Z,75.78
2017-02-23T12:47:09.565Z,75.96
2017-02-23T12:48:09.578Z,75.4
2017-02-23T12:49:09.698Z,75.2
2017-02-23T12:50:09.215Z,75.49
2017-02-23T12:51:09.625Z,75.2
2017-02-23T12:52:09.642Z,75.3
2017-02-23T12:53:09.661Z,75.49
2017-02-23T12:54:09.278Z,75.49
2017-02-23T12:55:09.692Z,75.49